Terminal Aerodrome Forecast
Issued by NWS

Home | Current Version | Previous Version | Text Only | Print | Product List | Glossary On
Versions: 1 2 3 4 5 6 7 8 9 10 11 12 13 14 15 16 17 18 19 20 21 22 23 24 25 26 27 28 29 30 31 32 33 34 35 36 37 38 39 40 41 42 43 44 45 46
000
FTUS43 KGRB 291723
TAFRHI
TAF
KRHI 291723Z 2918/3018 20010KT P6SM SCT030 BKN120
     FM292000 20008KT P6SM VCSH SCT035 BKN120
     FM300000 22005KT P6SM FEW040 BKN120
     FM300400 23003KT 4SM BR SCT040 BKN120
     FM300900 25003KT 2SM BR SCT003 BKN040
      TEMPO 3009/3013 1/2SM -SHRA FG BKN003
     FM301500 28006KT P6SM VCSH SCT025 OVC050=

USA.gov is the U.S. government's official web portal to all federal, state and local government web resources and services.